createdAt,value
2022-08-26T00:01:03.017Z,2.72
2022-08-26T00:03:31.283Z,2.17
2022-08-26T00:08:25.505Z,2.40
2022-08-26T00:10:52.632Z,2.20
2022-08-26T00:13:19.832Z,2.10
2022-08-26T00:15:47.141Z,2.50
2022-08-26T00:18:21.787Z,2.28
2022-08-26T00:20:49.673Z,2.40
2022-08-26T00:23:17.720Z,2.17
2022-08-26T00:25:44.870Z,2.25
2022-08-26T00:28:12.281Z,2.53
2022-08-26T00:30:40.020Z,2.40
2022-08-26T00:35:36.133Z,2.20
2022-08-26T00:38:03.888Z,2.08
2022-08-26T00:40:34.372Z,2.03
2022-08-26T00:43:02.387Z,1.92
2022-08-26T00:45:39.537Z,2.10
2022-08-26T00:48:07.325Z,2.13
2022-08-26T00:50:39.073Z,2.53
2022-08-26T00:53:24.205Z,1.75
2022-08-26T00:55:55.889Z,2.20
2022-08-26T00:58:24.124Z,2.03
2022-08-26T01:00:52.195Z,1.77
2022-08-26T01:03:21.691Z,2.20
2022-08-26T01:05:51.073Z,1.85
2022-08-26T01:08:18.655Z,1.85
2022-08-26T01:10:45.801Z,1.73
2022-08-26T01:13:13.497Z,1.95
2022-08-26T01:15:45.105Z,1.90
2022-08-26T01:18:13.367Z,1.95
2022-08-26T01:23:08.942Z,2.00
2022-08-26T01:25:39.335Z,2.33
2022-08-26T01:28:09.267Z,1.70
2022-08-26T01:30:39.056Z,1.90
2022-08-26T01:33:09.684Z,1.80
2022-08-26T01:35:37.789Z,1.90
2022-08-26T01:38:05.478Z,2.10
2022-08-26T01:40:34.449Z,1.88
2022-08-26T01:43:02.452Z,1.73
2022-08-26T01:45:31.138Z,2.10
2022-08-26T01:48:00.165Z,2.00
2022-08-26T01:50:30.697Z,1.90
2022-08-26T01:52:59.230Z,1.95
2022-08-26T01:58:00.240Z,1.48
2022-08-26T02:00:27.357Z,1.70
2022-08-26T02:03:16.640Z,1.45
2022-08-26T02:05:45.708Z,2.22
2022-08-26T02:08:22.993Z,1.50
2022-08-26T02:10:54.709Z,2.28
2022-08-26T02:13:22.673Z,1.40
2022-08-26T02:15:52.325Z,1.63
2022-08-26T02:18:20.008Z,1.58
2022-08-26T02:20:47.126Z,1.58
2022-08-26T02:23:18.748Z,1.70
2022-08-26T02:26:09.177Z,1.50
2022-08-26T02:28:38.253Z,1.70
2022-08-26T02:31:05.597Z,1.40
2022-08-26T02:33:35.097Z,1.50
2022-08-26T02:36:02.931Z,1.52
2022-08-26T02:38:30.504Z,1.23
2022-08-26T02:40:57.812Z,1.77
2022-08-26T02:43:32.839Z,1.30
2022-08-26T02:46:02.160Z,1.13
2022-08-26T02:48:29.560Z,1.35
2022-08-26T02:50:56.697Z,1.25
2022-08-26T02:53:25.326Z,1.17
2022-08-26T02:55:52.789Z,1.30
2022-08-26T02:58:20.703Z,1.33
2022-08-26T03:00:53.028Z,1.00
2022-08-26T03:03:23.562Z,1.30
2022-08-26T03:05:50.960Z,1.50
2022-08-26T03:08:18.128Z,1.38
2022-08-26T03:10:46.472Z,1.50
2022-08-26T03:13:15.305Z,1.15
2022-08-26T03:15:42.482Z,1.25
2022-08-26T03:18:11.002Z,1.15
2022-08-26T03:20:38.755Z,1.40
2022-08-26T03:23:06.217Z,1.20
2022-08-26T03:28:01.267Z,1.25
2022-08-26T03:30:44.883Z,1.13
2022-08-26T03:33:13.289Z,1.40
2022-08-26T03:35:41.671Z,1.00
2022-08-26T03:38:09.133Z,1.17
2022-08-26T03:40:36.666Z,1.20
2022-08-26T03:43:04.660Z,1.65
2022-08-26T03:45:32.216Z,1.17
2022-08-26T03:47:59.444Z,1.45
2022-08-26T03:50:26.836Z,1.17
2022-08-26T03:52:54.580Z,0.90
2022-08-26T03:55:23.753Z,1.30
2022-08-26T03:57:51.053Z,1.00
2022-08-26T04:00:18.766Z,0.90
2022-08-26T04:05:14.845Z,1.00
2022-08-26T04:07:42.867Z,0.90
2022-08-26T04:10:12.375Z,1.02
2022-08-26T04:12:40.329Z,1.05
2022-08-26T04:15:08.310Z,0.90
2022-08-26T04:17:35.492Z,1.20
2022-08-26T04:20:02.911Z,1.00
2022-08-26T04:22:30.022Z,1.08
2022-08-26T04:24:57.297Z,1.13
2022-08-26T04:27:24.676Z,1.10
2022-08-26T04:29:55.321Z,1.10
2022-08-26T04:32:22.630Z,1.10
2022-08-26T04:34:49.791Z,1.25
2022-08-26T04:37:16.868Z,1.10
2022-08-26T04:39:44.731Z,1.00
2022-08-26T04:42:13.454Z,0.80
2022-08-26T04:44:41.105Z,1.15
2022-08-26T04:47:08.199Z,0.82
2022-08-26T04:49:37.201Z,1.10
2022-08-26T04:52:05.211Z,1.02
2022-08-26T04:54:32.520Z,1.00
2022-08-26T04:56:59.802Z,0.95
2022-08-26T04:59:26.919Z,0.85
2022-08-26T05:01:59.397Z,0.80
2022-08-26T05:04:26.746Z,0.80
2022-08-26T05:06:57.825Z,0.90
2022-08-26T05:09:29.709Z,0.90
2022-08-26T05:11:57.872Z,0.85
2022-08-26T05:14:25.012Z,0.90
2022-08-26T05:16:52.261Z,1.05
2022-08-26T05:19:19.747Z,0.93
2022-08-26T05:21:49.281Z,0.82
2022-08-26T05:24:17.178Z,1.25
2022-08-26T05:26:45.065Z,1.30
2022-08-26T05:29:15.510Z,0.70
2022-08-26T05:31:44.181Z,0.93
2022-08-26T05:34:11.427Z,1.10
2022-08-26T05:36:40.039Z,0.98
2022-08-26T05:39:07.633Z,1.30
2022-08-26T05:41:38.775Z,1.30
2022-08-26T05:44:08.530Z,1.10
2022-08-26T05:46:36.692Z,1.05
2022-08-26T05:49:04.759Z,1.20
2022-08-26T05:51:32.954Z,1.10
2022-08-26T05:54:02.427Z,0.70
2022-08-26T05:56:30.770Z,1.40
2022-08-26T05:58:58.353Z,1.02
2022-08-26T06:01:27.310Z,1.13
2022-08-26T06:03:57.102Z,1.20
2022-08-26T06:06:41.164Z,1.10
2022-08-26T06:09:11.070Z,0.90
2022-08-26T06:11:38.987Z,1.20
2022-08-26T06:14:07.858Z,1.15
2022-08-26T06:16:38.243Z,0.88
2022-08-26T06:19:10.777Z,0.65
2022-08-26T06:21:40.160Z,0.80
2022-08-26T06:24:27.559Z,1.50
2022-08-26T06:26:59.083Z,1.05
2022-08-26T06:29:26.949Z,0.90
2022-08-26T06:31:56.305Z,0.80
2022-08-26T06:34:29.816Z,2.17
2022-08-26T06:36:58.765Z,0.85
2022-08-26T06:39:26.044Z,0.80
2022-08-26T06:41:53.392Z,0.80
2022-08-26T06:44:22.324Z,1.42
2022-08-26T06:46:50.202Z,1.00
2022-08-26T06:49:17.998Z,0.90
2022-08-26T06:51:47.589Z,1.58
2022-08-26T06:54:16.208Z,0.90
2022-08-26T06:56:43.848Z,0.82
2022-08-26T06:59:11.942Z,0.85
2022-08-26T07:01:44.493Z,1.00
2022-08-26T07:04:14.440Z,0.85
2022-08-26T07:06:47.034Z,0.90
2022-08-26T07:09:14.291Z,1.05
2022-08-26T07:11:41.780Z,1.27
2022-08-26T07:14:09.312Z,0.80
2022-08-26T07:16:36.709Z,0.90
2022-08-26T07:19:10.890Z,1.10
2022-08-26T07:21:48.157Z,1.00
2022-08-26T07:24:16.687Z,0.82
2022-08-26T07:26:43.855Z,1.02
2022-08-26T07:29:12.647Z,1.20
2022-08-26T07:31:42.683Z,0.73
2022-08-26T07:34:10.779Z,0.98
2022-08-26T07:36:38.111Z,1.42
2022-08-26T07:39:05.606Z,0.90
2022-08-26T07:41:33.121Z,0.90
2022-08-26T07:44:00.270Z,0.80
2022-08-26T07:46:30.201Z,1.25
2022-08-26T07:48:58.056Z,0.95
2022-08-26T07:51:25.719Z,1.15
2022-08-26T07:53:53.789Z,0.90
2022-08-26T07:56:23.344Z,0.90
2022-08-26T07:58:52.200Z,0.85
2022-08-26T08:01:20.686Z,0.80
2022-08-26T08:03:51.493Z,0.90
2022-08-26T08:06:19.617Z,0.80
2022-08-26T08:08:46.918Z,0.90
2022-08-26T08:11:14.688Z,0.75
2022-08-26T08:13:42.117Z,0.85
2022-08-26T08:16:12.517Z,1.02
2022-08-26T08:18:40.445Z,0.93
2022-08-26T08:21:24.130Z,0.80
2022-08-26T08:23:52.479Z,0.73
2022-08-26T08:26:19.676Z,0.80
2022-08-26T08:28:47.828Z,1.00
2022-08-26T08:31:38.544Z,0.93
2022-08-26T08:34:07.736Z,0.77
2022-08-26T08:36:36.151Z,0.82
2022-08-26T08:39:04.271Z,0.90
2022-08-26T08:41:37.166Z,0.80
2022-08-26T08:44:05.092Z,1.17
2022-08-26T08:46:32.869Z,1.42
2022-08-26T08:49:00.556Z,0.70
2022-08-26T08:51:42.748Z,1.00
2022-08-26T08:54:11.216Z,0.70
2022-08-26T08:56:40.789Z,0.85
2022-08-26T08:59:28.008Z,0.60
2022-08-26T09:01:55.951Z,0.68
2022-08-26T09:04:25.995Z,0.82
2022-08-26T09:06:58.857Z,0.80
2022-08-26T09:09:41.270Z,0.85
2022-08-26T09:12:12.701Z,0.80
2022-08-26T09:14:39.841Z,0.93
2022-08-26T09:17:06.963Z,0.82
2022-08-26T09:19:43.636Z,0.90
2022-08-26T09:22:10.897Z,0.60
2022-08-26T09:24:42.079Z,0.57
2022-08-26T09:27:35.383Z,1.40
2022-08-26T09:30:07.525Z,0.68
2022-08-26T09:32:40.810Z,0.75
2022-08-26T09:35:08.032Z,0.80
2022-08-26T09:37:35.651Z,0.70
2022-08-26T09:40:22.584Z,0.70
2022-08-26T09:43:13.728Z,0.77
2022-08-26T09:45:45.968Z,0.82
2022-08-26T09:48:26.139Z,0.63
2022-08-26T09:50:59.191Z,0.68
2022-08-26T09:53:50.534Z,0.70
2022-08-26T09:56:39.499Z,0.80
2022-08-26T09:59:10.890Z,0.77
2022-08-26T10:01:42.043Z,0.80
2022-08-26T10:04:12.320Z,0.70
2022-08-26T10:07:03.045Z,0.50
2022-08-26T10:09:33.362Z,0.80
2022-08-26T10:12:02.909Z,0.80
2022-08-26T10:15:00.998Z,1.02
2022-08-26T10:17:40.857Z,0.80
2022-08-26T10:20:24.962Z,0.80
2022-08-26T10:22:56.281Z,0.65
2022-08-26T10:25:56.994Z,0.60
2022-08-26T10:28:41.837Z,0.65
2022-08-26T10:31:17.325Z,0.60
2022-08-26T10:33:47.322Z,0.90
2022-08-26T10:36:46.995Z,0.70
2022-08-26T10:39:26.416Z,1.27
2022-08-26T10:41:59.286Z,0.80
2022-08-26T10:44:28.189Z,0.70
2022-08-26T10:47:00.456Z,0.60
2022-08-26T10:49:27.797Z,0.60
2022-08-26T10:54:32.429Z,0.60
2022-08-26T10:57:09.613Z,0.70
2022-08-26T10:59:43.822Z,0.60
2022-08-26T11:02:18.684Z,0.60
2022-08-26T11:04:51.783Z,0.73
2022-08-26T11:07:37.744Z,0.65
2022-08-26T11:10:06.852Z,0.65
2022-08-26T11:12:37.289Z,0.70
2022-08-26T11:15:05.219Z,0.63
2022-08-26T11:17:47.953Z,0.85
2022-08-26T11:20:24.311Z,0.95
2022-08-26T11:22:52.600Z,0.70
2022-08-26T11:25:29.128Z,1.00
2022-08-26T11:27:59.714Z,0.50
2022-08-26T11:30:35.040Z,0.50
2022-08-26T11:33:02.322Z,0.57
2022-08-26T11:35:29.936Z,0.52
2022-08-26T11:37:57.950Z,0.68
2022-08-26T11:40:30.598Z,0.70
2022-08-26T11:42:59.762Z,0.90
2022-08-26T11:45:41.438Z,0.70
2022-08-26T11:48:18.438Z,0.63
2022-08-26T11:51:02.846Z,0.80
2022-08-26T11:53:32.613Z,0.60
2022-08-26T11:56:02.726Z,1.00
2022-08-26T11:58:30.123Z,0.80
2022-08-26T12:01:03.669Z,1.15
2022-08-26T12:03:41.947Z,0.63
2022-08-26T12:06:19.319Z,0.80
2022-08-26T12:08:46.550Z,0.73
2022-08-26T12:11:34.016Z,0.70
2022-08-26T12:14:09.554Z,0.70
2022-08-26T12:16:38.269Z,0.60
2022-08-26T12:19:26.222Z,0.70
2022-08-26T12:22:15.190Z,0.82
2022-08-26T12:24:50.077Z,0.88
2022-08-26T12:27:18.889Z,1.20
2022-08-26T12:29:48.572Z,0.80
2022-08-26T12:32:18.402Z,0.90
2022-08-26T12:34:50.294Z,0.85
2022-08-26T12:37:25.977Z,0.70
2022-08-26T12:39:54.086Z,1.08
2022-08-26T12:42:21.387Z,0.93
2022-08-26T12:44:53.263Z,0.70
2022-08-26T12:47:45.733Z,0.80
2022-08-26T12:50:18.981Z,0.70
2022-08-26T12:52:58.463Z,1.10
2022-08-26T12:55:35.677Z,0.80
2022-08-26T12:58:13.032Z,0.60
2022-08-26T13:00:42.208Z,1.00
2022-08-26T13:03:28.487Z,0.73
2022-08-26T13:06:08.931Z,0.60
2022-08-26T13:08:54.449Z,0.95
2022-08-26T13:11:21.609Z,0.63
2022-08-26T13:13:53.640Z,0.77
2022-08-26T13:16:24.430Z,0.68
2022-08-26T13:18:53.268Z,0.80
2022-08-26T13:21:22.483Z,0.95
2022-08-26T13:23:50.522Z,0.80
2022-08-26T13:28:45.002Z,0.75
2022-08-26T13:31:16.810Z,0.60
2022-08-26T13:33:45.342Z,0.70
2022-08-26T13:36:14.058Z,0.80
2022-08-26T13:38:41.153Z,0.95
2022-08-26T13:41:08.255Z,0.90
2022-08-26T13:43:39.801Z,0.73
2022-08-26T13:46:16.075Z,0.82
2022-08-26T13:48:44.800Z,1.08
2022-08-26T13:51:12.708Z,0.80
2022-08-26T13:53:41.630Z,0.90
2022-08-26T13:56:11.083Z,0.82
2022-08-26T13:58:39.911Z,0.90
2022-08-26T14:01:07.293Z,1.15
2022-08-26T14:03:34.565Z,0.98
2022-08-26T14:06:01.723Z,1.30
2022-08-26T14:08:28.996Z,0.88
2022-08-26T14:10:56.441Z,0.90
2022-08-26T14:13:23.605Z,0.75
2022-08-26T14:15:51.105Z,1.13
2022-08-26T14:18:19.215Z,1.00
2022-08-26T14:20:49.308Z,1.00
2022-08-26T14:23:17.779Z,1.00
2022-08-26T14:25:47.226Z,0.95
2022-08-26T14:28:15.121Z,0.80
2022-08-26T14:30:43.520Z,0.70
2022-08-26T14:33:14.861Z,1.10
2022-08-26T14:36:20.985Z,0.85
2022-08-26T14:38:52.094Z,1.10
2022-08-26T14:41:19.635Z,0.90
2022-08-26T14:43:49.607Z,1.00
2022-08-26T14:46:43.964Z,0.73
2022-08-26T14:49:12.047Z,0.70
2022-08-26T14:51:40.823Z,0.90
2022-08-26T14:54:11.986Z,0.98
2022-08-26T14:56:45.695Z,0.65
2022-08-26T14:59:13.616Z,1.17
2022-08-26T15:01:48.887Z,0.90
2022-08-26T15:04:17.231Z,0.70
2022-08-26T15:06:44.771Z,1.00
2022-08-26T15:09:12.026Z,1.00
2022-08-26T15:11:39.418Z,1.10
2022-08-26T15:14:07.194Z,1.35
2022-08-26T15:16:35.137Z,1.13
2022-08-26T15:19:05.051Z,1.00
2022-08-26T15:21:33.463Z,1.00
2022-08-26T15:24:01.046Z,0.90
2022-08-26T15:26:30.352Z,1.10
2022-08-26T15:28:59.899Z,0.90
2022-08-26T15:31:31.464Z,1.10
2022-08-26T15:34:00.537Z,1.13
2022-08-26T15:36:29.007Z,0.93
2022-08-26T15:38:56.875Z,0.98
2022-08-26T15:41:24.521Z,0.90
2022-08-26T15:43:52.373Z,1.23
2022-08-26T15:46:19.746Z,0.82
2022-08-26T15:48:48.461Z,0.90
2022-08-26T15:51:45.859Z,1.35
2022-08-26T15:54:14.087Z,1.00
2022-08-26T15:56:41.395Z,1.13
2022-08-26T15:59:11.697Z,1.42
2022-08-26T16:01:39.504Z,1.00
2022-08-26T16:04:16.053Z,0.90
2022-08-26T16:06:43.646Z,0.90
2022-08-26T16:09:11.068Z,1.20
2022-08-26T16:11:39.570Z,0.90
2022-08-26T16:14:07.227Z,1.27
2022-08-26T16:16:37.085Z,0.90
2022-08-26T16:19:07.400Z,0.77
2022-08-26T16:21:35.191Z,0.80
2022-08-26T16:24:03.282Z,1.10
2022-08-26T16:26:34.937Z,0.98
2022-08-26T16:29:02.670Z,0.98
2022-08-26T16:31:29.941Z,1.00
2022-08-26T16:33:57.083Z,0.80
2022-08-26T16:36:24.424Z,0.90
2022-08-26T16:38:56.632Z,0.95
2022-08-26T16:41:28.768Z,1.10
2022-08-26T16:43:55.958Z,0.90
2022-08-26T16:46:25.604Z,0.95
2022-08-26T16:48:54.100Z,1.02
2022-08-26T16:51:26.937Z,0.90
2022-08-26T16:53:54.897Z,0.90
2022-08-26T16:56:23.875Z,0.85
2022-08-26T16:59:01.839Z,1.00
2022-08-26T17:01:29.942Z,0.90
2022-08-26T17:06:24.607Z,1.10
2022-08-26T17:08:53.050Z,0.90
2022-08-26T17:11:20.217Z,1.20
2022-08-26T17:13:47.647Z,1.00
2022-08-26T17:16:15.201Z,0.98
2022-08-26T17:18:42.534Z,0.95
2022-08-26T17:21:11.565Z,1.10
2022-08-26T17:23:39.539Z,1.27
2022-08-26T17:26:06.822Z,0.98
2022-08-26T17:28:34.384Z,1.17
2022-08-26T17:31:01.894Z,1.10
2022-08-26T17:33:30.385Z,0.95
2022-08-26T17:35:58.195Z,1.00
2022-08-26T17:38:25.578Z,1.10
2022-08-26T17:40:55.201Z,1.00
2022-08-26T17:43:22.536Z,1.00
2022-08-26T17:45:51.478Z,1.10
2022-08-26T17:48:18.695Z,1.10
2022-08-26T17:50:47.082Z,0.98
2022-08-26T17:53:18.826Z,1.25
2022-08-26T17:55:47.024Z,0.98
2022-08-26T17:58:14.915Z,1.00
2022-08-26T18:00:45.621Z,1.13
2022-08-26T18:03:12.852Z,1.10
2022-08-26T18:09:44.538Z,0.85
2022-08-26T18:15:45.973Z,1.10
2022-08-26T18:18:14.309Z,1.40
2022-08-26T18:23:46.336Z,1.00
2022-08-26T18:26:23.353Z,1.17
2022-08-26T18:28:50.588Z,1.20
2022-08-26T18:31:18.310Z,1.20
2022-08-26T18:33:46.206Z,1.20
2022-08-26T18:36:18.411Z,1.13
2022-08-26T18:38:45.989Z,1.17
2022-08-26T18:41:13.536Z,1.13
2022-08-26T18:43:40.711Z,1.23
2022-08-26T18:46:09.122Z,1.48
2022-08-26T18:48:37.313Z,1.17
2022-08-26T18:51:04.772Z,1.65
2022-08-26T18:53:32.044Z,1.17
2022-08-26T18:56:01.642Z,1.30
2022-08-26T18:58:28.768Z,1.45
2022-08-26T19:00:55.899Z,1.77
2022-08-26T19:03:22.981Z,1.45
2022-08-26T19:05:50.156Z,1.20
2022-08-26T19:08:18.611Z,1.40
2022-08-26T19:10:45.788Z,1.20
2022-08-26T19:13:13.095Z,1.30
2022-08-26T19:15:44.043Z,1.38
2022-08-26T19:18:12.128Z,1.35
2022-08-26T19:20:46.505Z,1.50
2022-08-26T19:23:30.577Z,1.33
2022-08-26T19:25:58.930Z,1.40
2022-08-26T19:28:26.065Z,1.30
2022-08-26T19:30:53.558Z,1.35
2022-08-26T19:33:21.668Z,1.00
2022-08-26T19:35:48.928Z,1.42
2022-08-26T19:38:17.038Z,1.50
2022-08-26T19:40:46.922Z,1.63
2022-08-26T19:43:14.124Z,1.52
2022-08-26T19:45:43.307Z,1.17
2022-08-26T19:48:11.371Z,1.38
2022-08-26T19:50:38.605Z,1.13
2022-08-26T19:53:05.937Z,1.50
2022-08-26T19:55:33.679Z,1.60
2022-08-26T19:58:00.850Z,1.30
2022-08-26T20:00:29.222Z,1.40
2022-08-26T20:05:25.581Z,1.50
2022-08-26T20:07:53.076Z,1.60
2022-08-26T20:10:23.573Z,1.30
2022-08-26T20:12:51.925Z,1.40
2022-08-26T20:17:46.326Z,1.40
2022-08-26T20:20:35.356Z,1.33
2022-08-26T20:23:04.418Z,1.63
2022-08-26T20:25:32.579Z,1.50
2022-08-26T20:28:02.261Z,1.40
2022-08-26T20:30:29.482Z,1.23
2022-08-26T20:32:56.963Z,1.48
2022-08-26T20:35:24.094Z,1.30
2022-08-26T20:37:51.251Z,1.45
2022-08-26T20:40:18.383Z,1.50
2022-08-26T20:42:45.502Z,1.40
2022-08-26T20:45:15.658Z,1.60
2022-08-26T20:47:43.925Z,1.58
2022-08-26T20:50:11.093Z,1.58
2022-08-26T20:52:38.215Z,1.35
2022-08-26T20:55:05.536Z,1.42
2022-08-26T20:57:32.733Z,1.30
2022-08-26T21:00:00.960Z,1.50
2022-08-26T21:02:28.272Z,1.45
2022-08-26T21:04:55.581Z,1.60
2022-08-26T21:07:27.077Z,1.25
2022-08-26T21:09:55.256Z,1.13
2022-08-26T21:12:23.027Z,1.55
2022-08-26T21:14:50.209Z,1.63
2022-08-26T21:17:17.514Z,1.52
2022-08-26T21:19:44.672Z,1.70
2022-08-26T21:22:12.350Z,1.50
2022-08-26T21:24:39.519Z,1.60
2022-08-26T21:27:06.625Z,1.63
2022-08-26T21:29:33.844Z,1.70
2022-08-26T21:32:01.143Z,1.45
2022-08-26T21:34:28.853Z,1.77
2022-08-26T21:36:56.012Z,1.70
2022-08-26T21:39:23.301Z,1.83
2022-08-26T21:41:50.459Z,1.45
2022-08-26T21:44:18.456Z,1.33
2022-08-26T21:46:46.743Z,1.65
2022-08-26T21:49:33.869Z,2.00
2022-08-26T21:52:04.468Z,1.60
2022-08-26T21:54:32.101Z,1.60
2022-08-26T21:56:59.276Z,1.50
2022-08-26T21:59:26.450Z,1.98
2022-08-26T22:01:54.439Z,2.10
2022-08-26T22:04:21.702Z,2.08
2022-08-26T22:06:50.077Z,1.83
2022-08-26T22:11:44.534Z,1.67
2022-08-26T22:14:11.681Z,2.10
2022-08-26T22:16:38.915Z,1.60
2022-08-26T22:19:06.269Z,1.83
2022-08-26T22:21:35.312Z,1.70
2022-08-26T22:24:02.940Z,1.60
2022-08-26T22:26:31.917Z,1.70
2022-08-26T22:28:59.741Z,2.17
2022-08-26T22:31:37.061Z,1.60
2022-08-26T22:34:06.504Z,1.42
2022-08-26T22:39:01.538Z,1.40
2022-08-26T22:41:28.690Z,1.60
2022-08-26T22:44:02.696Z,1.60
2022-08-26T22:46:30.268Z,1.75
2022-08-26T22:48:57.478Z,1.70
2022-08-26T22:51:25.058Z,1.45
2022-08-26T22:53:52.156Z,1.30
2022-08-26T22:56:21.097Z,1.50
2022-08-26T22:58:48.328Z,1.58
2022-08-26T23:01:16.858Z,1.65
2022-08-26T23:03:45.192Z,1.60
2022-08-26T23:08:39.845Z,1.60
2022-08-26T23:11:11.386Z,1.42
2022-08-26T23:13:38.824Z,1.67
2022-08-26T23:16:09.123Z,1.38
2022-08-26T23:18:36.810Z,1.50
2022-08-26T23:21:03.958Z,1.50
2022-08-26T23:23:31.169Z,1.70
2022-08-26T23:25:58.377Z,1.67
2022-08-26T23:28:26.398Z,1.50
2022-08-26T23:30:53.829Z,2.08
2022-08-26T23:33:21.057Z,1.83
2022-08-26T23:35:48.341Z,2.03
2022-08-26T23:40:43.553Z,2.20
2022-08-26T23:43:11.552Z,1.70
2022-08-26T23:45:39.174Z,1.80
2022-08-26T23:48:06.753Z,1.45
2022-08-26T23:50:52.908Z,1.52
2022-08-26T23:53:22.565Z,2.30
2022-08-26T23:55:51.292Z,1.55
2022-08-26T23:58:19.857Z,1.60
